sensor_id;sensor_type;location;lat;lon;timestamp;temperature;humidity
78884;SHT31;68262;51.968;5.672;2023-02-28T00:18:11;5.1;57.1
78884;SHT31;68262;51.968;5.672;2023-02-28T00:21:27;5.1;57.3
78884;SHT31;68262;51.968;5.672;2023-02-28T00:23:57;5.2;57.1
78884;SHT31;68262;51.968;5.672;2023-02-28T00:30:32;5.3;56.8
78884;SHT31;68262;51.968;5.672;2023-02-28T00:33:56;5.3;56.9
78884;SHT31;68262;51.968;5.672;2023-02-28T00:36:25;5.4;57.1
78884;SHT31;68262;51.968;5.672;2023-02-28T00:50:17;5.7;56.2
78884;SHT31;68262;51.968;5.672;2023-02-28T00:52:47;5.8;55.9
78884;SHT31;68262;51.968;5.672;2023-02-28T00:55:17;5.8;55.5
78884;SHT31;68262;51.968;5.672;2023-02-28T00:57:47;5.7;55.8
78884;SHT31;68262;51.968;5.672;2023-02-28T01:00:17;5.7;55.8
78884;SHT31;68262;51.968;5.672;2023-02-28T01:02:46;5.7;56.1
78884;SHT31;68262;51.968;5.672;2023-02-28T01:06:18;5.7;56.3
78884;SHT31;68262;51.968;5.672;2023-02-28T01:08:49;5.7;56.2
78884;SHT31;68262;51.968;5.672;2023-02-28T01:11:20;5.7;56.1
78884;SHT31;68262;51.968;5.672;2023-02-28T01:13:50;5.8;55.9
78884;SHT31;68262;51.968;5.672;2023-02-28T01:16:19;5.8;55.6
78884;SHT31;68262;51.968;5.672;2023-02-28T01:18:49;5.7;55.6
78884;SHT31;68262;51.968;5.672;2023-02-28T01:21:20;5.7;55.6
78884;SHT31;68262;51.968;5.672;2023-02-28T01:24:00;5.8;55.5
78884;SHT31;68262;51.968;5.672;2023-02-28T01:26:30;5.8;55.4
78884;SHT31;68262;51.968;5.672;2023-02-28T01:29:00;5.8;55.5
78884;SHT31;68262;51.968;5.672;2023-02-28T01:33:07;5.6;56.2
78884;SHT31;68262;51.968;5.672;2023-02-28T01:37:22;5.7;56.3
78884;SHT31;68262;51.968;5.672;2023-02-28T01:42:13;5.6;56.5
78884;SHT31;68262;51.968;5.672;2023-02-28T01:45:22;5.6;56.4
78884;SHT31;68262;51.968;5.672;2023-02-28T01:47:58;5.7;56.3
78884;SHT31;68262;51.968;5.672;2023-02-28T01:50:32;5.7;56.3
78884;SHT31;68262;51.968;5.672;2023-02-28T01:53:08;5.7;56.3
78884;SHT31;68262;51.968;5.672;2023-02-28T01:56:13;5.7;56.0
78884;SHT31;68262;51.968;5.672;2023-02-28T01:58:48;5.7;56.2
78884;SHT31;68262;51.968;5.672;2023-02-28T02:02:17;5.8;56.1
78884;SHT31;68262;51.968;5.672;2023-02-28T02:04:55;5.7;56.2
78884;SHT31;68262;51.968;5.672;2023-02-28T02:07:43;5.6;56.7
78884;SHT31;68262;51.968;5.672;2023-02-28T02:10:15;5.6;56.8
78884;SHT31;68262;51.968;5.672;2023-02-28T02:14:16;5.6;57.1
78884;SHT31;68262;51.968;5.672;2023-02-28T02:17:02;5.7;56.7
78884;SHT31;68262;51.968;5.672;2023-02-28T02:25:54;5.7;56.2
78884;SHT31;68262;51.968;5.672;2023-02-28T02:28:39;5.7;56.4
78884;SHT31;68262;51.968;5.672;2023-02-28T02:31:27;5.7;56.7
78884;SHT31;68262;51.968;5.672;2023-02-28T02:34:09;5.7;56.3
78884;SHT31;68262;51.968;5.672;2023-02-28T02:37:04;5.8;55.5
78884;SHT31;68262;51.968;5.672;2023-02-28T02:39:47;5.8;56.0
78884;SHT31;68262;51.968;5.672;2023-02-28T02:42:23;5.8;55.9
78884;SHT31;68262;51.968;5.672;2023-02-28T02:45:02;5.9;55.5
78884;SHT31;68262;51.968;5.672;2023-02-28T02:47:35;5.8;56.1
78884;SHT31;68262;51.968;5.672;2023-02-28T02:50:12;5.8;55.8
78884;SHT31;68262;51.968;5.672;2023-02-28T02:52:51;5.8;56.0
78884;SHT31;68262;51.968;5.672;2023-02-28T02:55:22;5.8;56.2
78884;SHT31;68262;51.968;5.672;2023-02-28T02:57:56;5.8;56.0
78884;SHT31;68262;51.968;5.672;2023-02-28T03:01:41;5.9;55.9
78884;SHT31;68262;51.968;5.672;2023-02-28T03:09:54;6.0;55.5
78884;SHT31;68262;51.968;5.672;2023-02-28T03:19:04;6.1;55.3
78884;SHT31;68262;51.968;5.672;2023-02-28T03:22:09;6.0;55.2
78884;SHT31;68262;51.968;5.672;2023-02-28T03:24:48;6.1;55.5
78884;SHT31;68262;51.968;5.672;2023-02-28T03:27:24;6.0;55.9
78884;SHT31;68262;51.968;5.672;2023-02-28T03:30:02;6.0;55.9
78884;SHT31;68262;51.968;5.672;2023-02-28T03:32:38;6.0;56.2
78884;SHT31;68262;51.968;5.672;2023-02-28T03:35:16;5.9;56.4
78884;SHT31;68262;51.968;5.672;2023-02-28T03:37:53;5.9;56.9
78884;SHT31;68262;51.968;5.672;2023-02-28T03:40:30;5.8;57.1
78884;SHT31;68262;51.968;5.672;2023-02-28T03:43:10;5.8;57.3
78884;SHT31;68262;51.968;5.672;2023-02-28T03:45:42;5.8;57.4
78884;SHT31;68262;51.968;5.672;2023-02-28T03:48:17;5.8;56.7
78884;SHT31;68262;51.968;5.672;2023-02-28T03:50:51;5.8;56.6
78884;SHT31;68262;51.968;5.672;2023-02-28T03:53:27;5.7;55.2
78884;SHT31;68262;51.968;5.672;2023-02-28T03:56:03;5.7;55.0
78884;SHT31;68262;51.968;5.672;2023-02-28T03:58:43;5.7;55.8
78884;SHT31;68262;51.968;5.672;2023-02-28T04:01:20;5.7;54.7
78884;SHT31;68262;51.968;5.672;2023-02-28T04:03:52;5.7;53.5
78884;SHT31;68262;51.968;5.672;2023-02-28T04:06:23;5.7;53.4
78884;SHT31;68262;51.968;5.672;2023-02-28T04:08:56;5.6;53.2
78884;SHT31;68262;51.968;5.672;2023-02-28T04:11:33;5.6;53.6
78884;SHT31;68262;51.968;5.672;2023-02-28T04:14:05;5.6;53.8
78884;SHT31;68262;51.968;5.672;2023-02-28T04:16:38;5.6;52.5
78884;SHT31;68262;51.968;5.672;2023-02-28T04:19:10;5.6;53.1
78884;SHT31;68262;51.968;5.672;2023-02-28T04:21:41;5.5;53.1
78884;SHT31;68262;51.968;5.672;2023-02-28T04:24:13;5.5;53.7
78884;SHT31;68262;51.968;5.672;2023-02-28T04:26:45;5.4;53.7
78884;SHT31;68262;51.968;5.672;2023-02-28T04:29:20;5.4;53.5
78884;SHT31;68262;51.968;5.672;2023-02-28T04:31:50;5.4;53.7
78884;SHT31;68262;51.968;5.672;2023-02-28T04:34:21;5.4;54.3
78884;SHT31;68262;51.968;5.672;2023-02-28T04:36:51;5.4;54.0
78884;SHT31;68262;51.968;5.672;2023-02-28T04:39:23;5.4;53.6
78884;SHT31;68262;51.968;5.672;2023-02-28T04:41:53;5.4;53.6
78884;SHT31;68262;51.968;5.672;2023-02-28T04:44:22;5.4;53.8
78884;SHT31;68262;51.968;5.672;2023-02-28T04:46:52;5.3;54.1
78884;SHT31;68262;51.968;5.672;2023-02-28T04:49:22;5.3;54.0
78884;SHT31;68262;51.968;5.672;2023-02-28T04:53:44;5.6;52.9
78884;SHT31;68262;51.968;5.672;2023-02-28T04:56:16;5.6;53.0
78884;SHT31;68262;51.968;5.672;2023-02-28T04:58:47;5.6;53.4
78884;SHT31;68262;51.968;5.672;2023-02-28T05:01:22;5.6;53.5
78884;SHT31;68262;51.968;5.672;2023-02-28T05:05:44;5.7;53.3
78884;SHT31;68262;51.968;5.672;2023-02-28T05:08:14;5.7;53.3
78884;SHT31;68262;51.968;5.672;2023-02-28T05:10:43;5.7;53.9
78884;SHT31;68262;51.968;5.672;2023-02-28T05:13:13;5.7;53.7
78884;SHT31;68262;51.968;5.672;2023-02-28T05:15:42;5.7;53.6
78884;SHT31;68262;51.968;5.672;2023-02-28T05:18:14;5.7;53.5
78884;SHT31;68262;51.968;5.672;2023-02-28T05:20:44;5.7;53.7
78884;SHT31;68262;51.968;5.672;2023-02-28T05:23:15;5.7;53.3
78884;SHT31;68262;51.968;5.672;2023-02-28T05:25:45;5.7;53.2
78884;SHT31;68262;51.968;5.672;2023-02-28T05:28:16;5.6;53.7
78884;SHT31;68262;51.968;5.672;2023-02-28T05:30:46;5.6;53.7
78884;SHT31;68262;51.968;5.672;2023-02-28T05:33:16;5.6;53.7
78884;SHT31;68262;51.968;5.672;2023-02-28T05:35:47;5.6;54.2
78884;SHT31;68262;51.968;5.672;2023-02-28T05:38:17;5.6;54.0
78884;SHT31;68262;51.968;5.672;2023-02-28T05:40:47;5.6;54.4
78884;SHT31;68262;51.968;5.672;2023-02-28T05:43:16;5.6;54.4
78884;SHT31;68262;51.968;5.672;2023-02-28T05:45:46;5.6;54.3
78884;SHT31;68262;51.968;5.672;2023-02-28T05:48:15;5.5;54.4
78884;SHT31;68262;51.968;5.672;2023-02-28T05:50:45;5.5;54.2
78884;SHT31;68262;51.968;5.672;2023-02-28T05:53:15;5.5;54.8
78884;SHT31;68262;51.968;5.672;2023-02-28T05:55:44;5.5;54.5
78884;SHT31;68262;51.968;5.672;2023-02-28T05:58:14;5.5;54.1
78884;SHT31;68262;51.968;5.672;2023-02-28T06:00:43;5.4;54.6
78884;SHT31;68262;51.968;5.672;2023-02-28T06:03:13;5.4;54.5
78884;SHT31;68262;51.968;5.672;2023-02-28T06:05:43;5.4;54.9
78884;SHT31;68262;51.968;5.672;2023-02-28T06:09:17;5.7;53.7
78884;SHT31;68262;51.968;5.672;2023-02-28T06:11:47;5.7;53.7
78884;SHT31;68262;51.968;5.672;2023-02-28T06:14:18;5.7;53.8
78884;SHT31;68262;51.968;5.672;2023-02-28T06:16:48;5.7;53.4
78884;SHT31;68262;51.968;5.672;2023-02-28T06:19:17;5.7;53.3
78884;SHT31;68262;51.968;5.672;2023-02-28T06:21:50;5.7;53.7
78884;SHT31;68262;51.968;5.672;2023-02-28T06:24:21;5.7;53.3
78884;SHT31;68262;51.968;5.672;2023-02-28T06:26:53;5.7;53.6
78884;SHT31;68262;51.968;5.672;2023-02-28T06:29:23;5.6;53.4
78884;SHT31;68262;51.968;5.672;2023-02-28T06:31:52;5.6;53.3
78884;SHT31;68262;51.968;5.672;2023-02-28T06:34:21;5.6;53.3
78884;SHT31;68262;51.968;5.672;2023-02-28T06:36:52;5.6;53.0
78884;SHT31;68262;51.968;5.672;2023-02-28T06:39:21;5.6;53.0
78884;SHT31;68262;51.968;5.672;2023-02-28T06:41:51;5.6;53.8
78884;SHT31;68262;51.968;5.672;2023-02-28T06:44:21;5.6;53.0
78884;SHT31;68262;51.968;5.672;2023-02-28T06:46:51;5.6;53.4
78884;SHT31;68262;51.968;5.672;2023-02-28T06:49:21;5.6;53.7
78884;SHT31;68262;51.968;5.672;2023-02-28T06:51:50;5.6;53.6
78884;SHT31;68262;51.968;5.672;2023-02-28T06:54:21;5.6;53.7
78884;SHT31;68262;51.968;5.672;2023-02-28T06:56:51;5.6;54.0
78884;SHT31;68262;51.968;5.672;2023-02-28T06:59:21;5.6;54.2
78884;SHT31;68262;51.968;5.672;2023-02-28T07:01:51;5.6;53.8
78884;SHT31;68262;51.968;5.672;2023-02-28T07:04:20;5.6;54.2
78884;SHT31;68262;51.968;5.672;2023-02-28T07:06:50;5.6;53.9
78884;SHT31;68262;51.968;5.672;2023-02-28T07:09:19;5.6;54.2
78884;SHT31;68262;51.968;5.672;2023-02-28T07:11:49;5.6;54.1
78884;SHT31;68262;51.968;5.672;2023-02-28T07:14:18;5.6;54.8
78884;SHT31;68262;51.968;5.672;2023-02-28T07:16:51;5.6;53.4
78884;SHT31;68262;51.968;5.672;2023-02-28T07:19:20;5.6;53.5
78884;SHT31;68262;51.968;5.672;2023-02-28T07:21:52;5.5;54.0
78884;SHT31;68262;51.968;5.672;2023-02-28T07:24:21;5.5;53.6
78884;SHT31;68262;51.968;5.672;2023-02-28T07:26:53;5.5;54.2
78884;SHT31;68262;51.968;5.672;2023-02-28T07:29:22;5.5;54.3
78884;SHT31;68262;51.968;5.672;2023-02-28T07:31:52;5.5;54.8
78884;SHT31;68262;51.968;5.672;2023-02-28T07:34:22;5.5;55.0
78884;SHT31;68262;51.968;5.672;2023-02-28T07:36:55;5.5;54.8
78884;SHT31;68262;51.968;5.672;2023-02-28T07:39:26;5.5;55.5
78884;SHT31;68262;51.968;5.672;2023-02-28T07:41:55;5.5;55.2
78884;SHT31;68262;51.968;5.672;2023-02-28T07:44:27;5.6;54.6
78884;SHT31;68262;51.968;5.672;2023-02-28T07:46:56;5.6;54.5
78884;SHT31;68262;51.968;5.672;2023-02-28T07:49:25;5.6;55.1
78884;SHT31;68262;51.968;5.672;2023-02-28T07:51:55;5.6;55.1
78884;SHT31;68262;51.968;5.672;2023-02-28T07:54:24;5.7;55.0
78884;SHT31;68262;51.968;5.672;2023-02-28T07:56:54;5.7;54.1
78884;SHT31;68262;51.968;5.672;2023-02-28T07:59:23;5.7;53.8
78884;SHT31;68262;51.968;5.672;2023-02-28T08:01:53;5.8;53.2
78884;SHT31;68262;51.968;5.672;2023-02-28T08:04:22;5.9;49.0
78884;SHT31;68262;51.968;5.672;2023-02-28T08:06:52;6.1;44.9
78884;SHT31;68262;51.968;5.672;2023-02-28T08:09:23;6.3;42.7
78884;SHT31;68262;51.968;5.672;2023-02-28T08:11:53;6.6;39.9
78884;SHT31;68262;51.968;5.672;2023-02-28T08:14:22;6.8;41.2
78884;SHT31;68262;51.968;5.672;2023-02-28T08:16:52;7.0;40.4
78884;SHT31;68262;51.968;5.672;2023-02-28T08:19:21;7.2;38.0
78884;SHT31;68262;51.968;5.672;2023-02-28T08:21:51;7.3;37.4
78884;SHT31;68262;51.968;5.672;2023-02-28T08:24:21;7.3;36.9
78884;SHT31;68262;51.968;5.672;2023-02-28T08:26:50;7.3;38.3
78884;SHT31;68262;51.968;5.672;2023-02-28T08:29:20;7.3;38.5
78884;SHT31;68262;51.968;5.672;2023-02-28T08:31:49;7.4;40.7
78884;SHT31;68262;51.968;5.672;2023-02-28T08:34:19;7.7;38.7
78884;SHT31;68262;51.968;5.672;2023-02-28T08:36:48;7.9;36.5
78884;SHT31;68262;51.968;5.672;2023-02-28T08:39:18;8.1;37.5
78884;SHT31;68262;51.968;5.672;2023-02-28T08:41:47;8.2;36.8
78884;SHT31;68262;51.968;5.672;2023-02-28T08:44:17;8.4;36.9
78884;SHT31;68262;51.968;5.672;2023-02-28T08:46:46;8.5;35.0
78884;SHT31;68262;51.968;5.672;2023-02-28T08:49:15;8.6;34.3
78884;SHT31;68262;51.968;5.672;2023-02-28T08:51:46;8.7;34.0
78884;SHT31;68262;51.968;5.672;2023-02-28T08:54:15;8.7;35.2
78884;SHT31;68262;51.968;5.672;2023-02-28T08:56:47;8.8;34.3
78884;SHT31;68262;51.968;5.672;2023-02-28T08:59:16;8.8;34.6
78884;SHT31;68262;51.968;5.672;2023-02-28T09:01:47;8.9;34.4
78884;SHT31;68262;51.968;5.672;2023-02-28T09:04:17;8.9;32.6
78884;SHT31;68262;51.968;5.672;2023-02-28T09:06:48;8.9;32.3
78884;SHT31;68262;51.968;5.672;2023-02-28T09:09:18;8.9;31.9
78884;SHT31;68262;51.968;5.672;2023-02-28T09:11:47;8.8;31.6
78884;SHT31;68262;51.968;5.672;2023-02-28T09:14:17;8.8;30.9
78884;SHT31;68262;51.968;5.672;2023-02-28T09:16:47;8.7;31.1
78884;SHT31;68262;51.968;5.672;2023-02-28T09:19:17;8.6;31.4
78884;SHT31;68262;51.968;5.672;2023-02-28T09:21:46;8.6;32.3
78884;SHT31;68262;51.968;5.672;2023-02-28T09:24:15;8.6;31.2
78884;SHT31;68262;51.968;5.672;2023-02-28T09:26:47;8.6;31.4
78884;SHT31;68262;51.968;5.672;2023-02-28T09:29:16;8.6;30.9
78884;SHT31;68262;51.968;5.672;2023-02-28T09:31:46;8.7;32.2
78884;SHT31;68262;51.968;5.672;2023-02-28T09:34:17;9.0;32.7
78884;SHT31;68262;51.968;5.672;2023-02-28T09:36:47;9.6;29.7
78884;SHT31;68262;51.968;5.672;2023-02-28T09:39:18;10.0;30.3
78884;SHT31;68262;51.968;5.672;2023-02-28T09:41:51;10.3;29.7
78884;SHT31;68262;51.968;5.672;2023-02-28T09:44:28;10.4;29.6
78884;SHT31;68262;51.968;5.672;2023-02-28T09:47:03;10.4;28.7
78884;SHT31;68262;51.968;5.672;2023-02-28T09:49:39;10.4;29.0
78884;SHT31;68262;51.968;5.672;2023-02-28T09:52:15;10.4;28.7
78884;SHT31;68262;51.968;5.672;2023-02-28T09:54:46;10.3;28.0
78884;SHT31;68262;51.968;5.672;2023-02-28T09:57:24;10.2;28.8
78884;SHT31;68262;51.968;5.672;2023-02-28T10:00:05;10.2;30.4
78884;SHT31;68262;51.968;5.672;2023-02-28T10:02:47;10.1;29.0
78884;SHT31;68262;51.968;5.672;2023-02-28T10:05:20;10.1;29.5
78884;SHT31;68262;51.968;5.672;2023-02-28T10:08:01;10.1;28.2
78884;SHT31;68262;51.968;5.672;2023-02-28T10:10:38;10.0;29.2
78884;SHT31;68262;51.968;5.672;2023-02-28T10:13:14;10.0;28.8
78884;SHT31;68262;51.968;5.672;2023-02-28T10:15:47;10.0;28.3
78884;SHT31;68262;51.968;5.672;2023-02-28T10:18:22;10.1;30.1
78884;SHT31;68262;51.968;5.672;2023-02-28T10:20:57;10.2;29.6
78884;SHT31;68262;51.968;5.672;2023-02-28T10:23:33;10.4;29.4
78884;SHT31;68262;51.968;5.672;2023-02-28T10:26:12;10.7;28.7
78884;SHT31;68262;51.968;5.672;2023-02-28T10:28:44;10.9;29.5
78884;SHT31;68262;51.968;5.672;2023-02-28T10:31:17;11.3;28.0
78884;SHT31;68262;51.968;5.672;2023-02-28T10:33:48;11.6;28.3
78884;SHT31;68262;51.968;5.672;2023-02-28T10:36:19;11.8;27.1
78884;SHT31;68262;51.968;5.672;2023-02-28T10:38:49;12.0;27.3
78884;SHT31;68262;51.968;5.672;2023-02-28T10:41:30;12.2;27.4
78884;SHT31;68262;51.968;5.672;2023-02-28T10:44:18;12.4;26.0
78884;SHT31;68262;51.968;5.672;2023-02-28T10:46:50;12.5;25.4
78884;SHT31;68262;51.968;5.672;2023-02-28T10:49:23;12.5;26.6
78884;SHT31;68262;51.968;5.672;2023-02-28T10:51:55;12.3;26.6
78884;SHT31;68262;51.968;5.672;2023-02-28T10:54:30;12.2;26.0
78884;SHT31;68262;51.968;5.672;2023-02-28T10:57:17;12.2;26.3
78884;SHT31;68262;51.968;5.672;2023-02-28T10:59:50;12.2;27.3
78884;SHT31;68262;51.968;5.672;2023-02-28T11:02:34;12.3;27.1
78884;SHT31;68262;51.968;5.672;2023-02-28T11:05:23;12.6;26.8
78884;SHT31;68262;51.968;5.672;2023-02-28T11:07:55;13.0;27.9
78884;SHT31;68262;51.968;5.672;2023-02-28T11:10:30;13.2;25.8
78884;SHT31;68262;51.968;5.672;2023-02-28T11:13:02;13.4;26.7
78884;SHT31;68262;51.968;5.672;2023-02-28T11:15:34;13.5;25.0
78884;SHT31;68262;51.968;5.672;2023-02-28T11:18:18;13.5;25.5
78884;SHT31;68262;51.968;5.672;2023-02-28T11:20:51;13.5;26.9
78884;SHT31;68262;51.968;5.672;2023-02-28T11:23:27;13.5;26.8
78884;SHT31;68262;51.968;5.672;2023-02-28T11:26:00;13.6;26.8
78884;SHT31;68262;51.968;5.672;2023-02-28T11:28:34;13.7;25.7
78884;SHT31;68262;51.968;5.672;2023-02-28T11:31:18;13.8;26.4
78884;SHT31;68262;51.968;5.672;2023-02-28T11:33:51;13.8;25.6
78884;SHT31;68262;51.968;5.672;2023-02-28T11:36:23;13.9;25.3
78884;SHT31;68262;51.968;5.672;2023-02-28T11:38:58;13.9;25.9
78884;SHT31;68262;51.968;5.672;2023-02-28T11:41:43;14.1;25.5
78884;SHT31;68262;51.968;5.672;2023-02-28T11:44:31;14.3;24.5
78884;SHT31;68262;51.968;5.672;2023-02-28T11:47:12;14.4;24.4
78884;SHT31;68262;51.968;5.672;2023-02-28T11:49:54;14.3;23.9
78884;SHT31;68262;51.968;5.672;2023-02-28T11:52:36;14.0;24.8
78884;SHT31;68262;51.968;5.672;2023-02-28T11:55:17;13.6;25.8
78884;SHT31;68262;51.968;5.672;2023-02-28T11:58:20;13.3;24.8
78884;SHT31;68262;51.968;5.672;2023-02-28T12:01:09;13.0;25.5
78884;SHT31;68262;51.968;5.672;2023-02-28T12:03:54;12.8;25.8
78884;SHT31;68262;51.968;5.672;2023-02-28T12:06:32;12.6;26.0
78884;SHT31;68262;51.968;5.672;2023-02-28T12:09:23;12.4;25.9
78884;SHT31;68262;51.968;5.672;2023-02-28T12:12:02;12.2;26.5
78884;SHT31;68262;51.968;5.672;2023-02-28T12:14:53;11.9;27.9
78884;SHT31;68262;51.968;5.672;2023-02-28T12:17:41;11.8;26.7
78884;SHT31;68262;51.968;5.672;2023-02-28T12:20:24;11.6;27.0
78884;SHT31;68262;51.968;5.672;2023-02-28T12:23:15;11.5;28.1
78884;SHT31;68262;51.968;5.672;2023-02-28T12:25:58;11.5;26.7
78884;SHT31;68262;51.968;5.672;2023-02-28T12:28:35;11.5;26.9
78884;SHT31;68262;51.968;5.672;2023-02-28T12:31:11;11.4;27.7
78884;SHT31;68262;51.968;5.672;2023-02-28T12:33:46;11.4;28.6
78884;SHT31;68262;51.968;5.672;2023-02-28T12:36:18;11.5;29.3
78884;SHT31;68262;51.968;5.672;2023-02-28T12:38:54;11.6;27.6
78884;SHT31;68262;51.968;5.672;2023-02-28T12:41:31;11.7;27.9
78884;SHT31;68262;51.968;5.672;2023-02-28T12:44:08;11.7;28.6
78884;SHT31;68262;51.968;5.672;2023-02-28T12:46:42;11.8;27.4
78884;SHT31;68262;51.968;5.672;2023-02-28T12:49:17;11.8;28.8
78884;SHT31;68262;51.968;5.672;2023-02-28T12:51:49;11.9;26.4
78884;SHT31;68262;51.968;5.672;2023-02-28T12:54:25;12.1;26.4
78884;SHT31;68262;51.968;5.672;2023-02-28T12:57:09;12.2;28.1
78884;SHT31;68262;51.968;5.672;2023-02-28T12:59:48;12.6;25.4
78884;SHT31;68262;51.968;5.672;2023-02-28T13:02:54;12.9;27.2
78884;SHT31;68262;51.968;5.672;2023-02-28T13:05:46;13.4;26.4
78884;SHT31;68262;51.968;5.672;2023-02-28T13:08:59;14.0;25.9
78884;SHT31;68262;51.968;5.672;2023-02-28T13:11:32;14.8;24.3
78884;SHT31;68262;51.968;5.672;2023-02-28T13:14:05;15.3;22.9
78884;SHT31;68262;51.968;5.672;2023-02-28T13:16:55;15.5;21.8
78884;SHT31;68262;51.968;5.672;2023-02-28T13:19:27;15.7;24.2
78884;SHT31;68262;51.968;5.672;2023-02-28T13:21:58;15.9;24.0
78884;SHT31;68262;51.968;5.672;2023-02-28T13:24:40;16.3;21.3
78884;SHT31;68262;51.968;5.672;2023-02-28T13:28:11;16.5;20.6
78884;SHT31;68262;51.968;5.672;2023-02-28T13:31:06;16.6;21.5
78884;SHT31;68262;51.968;5.672;2023-02-28T13:33:37;16.7;22.3
78884;SHT31;68262;51.968;5.672;2023-02-28T13:36:27;16.9;21.7
78884;SHT31;68262;51.968;5.672;2023-02-28T13:39:00;17.1;21.4
78884;SHT31;68262;51.968;5.672;2023-02-28T13:41:52;17.3;20.1
78884;SHT31;68262;51.968;5.672;2023-02-28T13:44:22;17.4;20.0
78884;SHT31;68262;51.968;5.672;2023-02-28T13:47:19;17.4;20.6
78884;SHT31;68262;51.968;5.672;2023-02-28T13:49:50;17.4;22.7
78884;SHT31;68262;51.968;5.672;2023-02-28T13:52:23;17.5;19.5
78884;SHT31;68262;51.968;5.672;2023-02-28T13:55:15;17.5;21.6
78884;SHT31;68262;51.968;5.672;2023-02-28T13:58:08;17.6;21.4
78884;SHT31;68262;51.968;5.672;2023-02-28T14:00:59;17.8;21.5
78884;SHT31;68262;51.968;5.672;2023-02-28T14:03:39;18.0;20.8
78884;SHT31;68262;51.968;5.672;2023-02-28T14:06:25;18.2;20.4
78884;SHT31;68262;51.968;5.672;2023-02-28T14:08:59;18.5;19.7
78884;SHT31;68262;51.968;5.672;2023-02-28T14:11:33;18.5;20.4
78884;SHT31;68262;51.968;5.672;2023-02-28T14:14:05;18.7;19.4
78884;SHT31;68262;51.968;5.672;2023-02-28T14:16:41;18.8;20.4
78884;SHT31;68262;51.968;5.672;2023-02-28T14:19:15;19.0;19.1
78884;SHT31;68262;51.968;5.672;2023-02-28T14:22:01;19.0;18.6
78884;SHT31;68262;51.968;5.672;2023-02-28T14:25:07;19.1;19.2
78884;SHT31;68262;51.968;5.672;2023-02-28T14:27:47;19.1;19.3
78884;SHT31;68262;51.968;5.672;2023-02-28T14:31:07;19.1;19.3
78884;SHT31;68262;51.968;5.672;2023-02-28T14:33:48;19.1;19.5
78884;SHT31;68262;51.968;5.672;2023-02-28T14:36:26;19.1;19.1
78884;SHT31;68262;51.968;5.672;2023-02-28T14:38:59;19.1;19.3
78884;SHT31;68262;51.968;5.672;2023-02-28T14:41:33;19.1;20.0
78884;SHT31;68262;51.968;5.672;2023-02-28T14:44:16;19.1;20.1
78884;SHT31;68262;51.968;5.672;2023-02-28T14:46:49;19.1;20.1
78884;SHT31;68262;51.968;5.672;2023-02-28T14:49:22;19.2;20.1
78884;SHT31;68262;51.968;5.672;2023-02-28T14:52:03;19.2;19.5
78884;SHT31;68262;51.968;5.672;2023-02-28T14:54:38;19.2;18.4
78884;SHT31;68262;51.968;5.672;2023-02-28T14:57:22;19.1;18.2
78884;SHT31;68262;51.968;5.672;2023-02-28T15:00:00;18.8;20.0
78884;SHT31;68262;51.968;5.672;2023-02-28T15:02:34;18.5;19.5
78884;SHT31;68262;51.968;5.672;2023-02-28T15:05:33;18.4;19.0
78884;SHT31;68262;51.968;5.672;2023-02-28T15:08:09;18.2;20.7
78884;SHT31;68262;51.968;5.672;2023-02-28T15:10:42;18.2;20.7
78884;SHT31;68262;51.968;5.672;2023-02-28T15:13:14;18.1;19.9
78884;SHT31;68262;51.968;5.672;2023-02-28T15:15:48;18.0;20.6
78884;SHT31;68262;51.968;5.672;2023-02-28T15:18:33;17.8;20.1
78884;SHT31;68262;51.968;5.672;2023-02-28T15:21:07;17.7;20.8
78884;SHT31;68262;51.968;5.672;2023-02-28T15:23:41;17.7;20.5
78884;SHT31;68262;51.968;5.672;2023-02-28T15:26:15;17.7;20.4
78884;SHT31;68262;51.968;5.672;2023-02-28T15:28:47;17.8;20.3
78884;SHT31;68262;51.968;5.672;2023-02-28T15:31:25;17.8;20.2
78884;SHT31;68262;51.968;5.672;2023-02-28T15:33:58;17.8;20.0
78884;SHT31;68262;51.968;5.672;2023-02-28T15:36:33;17.7;20.1
78884;SHT31;68262;51.968;5.672;2023-02-28T15:39:18;17.5;19.9
78884;SHT31;68262;51.968;5.672;2023-02-28T15:41:50;17.0;20.6
78884;SHT31;68262;51.968;5.672;2023-02-28T15:44:27;16.5;21.7
78884;SHT31;68262;51.968;5.672;2023-02-28T15:47:01;16.0;21.2
78884;SHT31;68262;51.968;5.672;2023-02-28T15:49:44;15.5;21.9
78884;SHT31;68262;51.968;5.672;2023-02-28T15:52:18;14.9;22.8
78884;SHT31;68262;51.968;5.672;2023-02-28T15:54:48;14.5;23.6
78884;SHT31;68262;51.968;5.672;2023-02-28T15:57:22;14.2;23.8
78884;SHT31;68262;51.968;5.672;2023-02-28T15:59:56;14.0;23.8
78884;SHT31;68262;51.968;5.672;2023-02-28T16:02:33;13.7;24.3
78884;SHT31;68262;51.968;5.672;2023-02-28T16:05:20;13.6;24.9
78884;SHT31;68262;51.968;5.672;2023-02-28T16:07:56;13.4;24.8
78884;SHT31;68262;51.968;5.672;2023-02-28T16:10:28;13.3;25.5
78884;SHT31;68262;51.968;5.672;2023-02-28T16:12:58;13.2;24.9
78884;SHT31;68262;51.968;5.672;2023-02-28T16:15:30;13.1;25.4
78884;SHT31;68262;51.968;5.672;2023-02-28T16:18:02;13.0;25.2
78884;SHT31;68262;51.968;5.672;2023-02-28T16:20:33;12.9;26.0
78884;SHT31;68262;51.968;5.672;2023-02-28T16:23:02;12.9;26.9
78884;SHT31;68262;51.968;5.672;2023-02-28T16:25:37;12.8;26.2
78884;SHT31;68262;51.968;5.672;2023-02-28T16:28:15;12.7;25.9
78884;SHT31;68262;51.968;5.672;2023-02-28T16:30:48;12.7;26.2
78884;SHT31;68262;51.968;5.672;2023-02-28T16:33:20;12.6;26.8
78884;SHT31;68262;51.968;5.672;2023-02-28T16:35:49;12.6;26.6
78884;SHT31;68262;51.968;5.672;2023-02-28T16:38:19;12.5;26.9
78884;SHT31;68262;51.968;5.672;2023-02-28T16:40:50;12.5;26.6
78884;SHT31;68262;51.968;5.672;2023-02-28T16:43:24;12.4;27.0
78884;SHT31;68262;51.968;5.672;2023-02-28T16:45:56;12.3;26.9
78884;SHT31;68262;51.968;5.672;2023-02-28T16:48:26;12.3;27.8
78884;SHT31;68262;51.968;5.672;2023-02-28T16:50:58;12.2;27.2
78884;SHT31;68262;51.968;5.672;2023-02-28T16:53:28;12.1;27.2
78884;SHT31;68262;51.968;5.672;2023-02-28T16:55:57;12.0;28.4
78884;SHT31;68262;51.968;5.672;2023-02-28T16:58:29;11.9;27.7
78884;SHT31;68262;51.968;5.672;2023-02-28T17:00:59;11.9;27.2
78884;SHT31;68262;51.968;5.672;2023-02-28T17:03:28;11.8;28.2
78884;SHT31;68262;51.968;5.672;2023-02-28T17:05:58;11.7;28.0
78884;SHT31;68262;51.968;5.672;2023-02-28T17:08:28;11.6;28.7
78884;SHT31;68262;51.968;5.672;2023-02-28T17:10:59;11.4;29.1
78884;SHT31;68262;51.968;5.672;2023-02-28T17:13:29;11.3;28.6
78884;SHT31;68262;51.968;5.672;2023-02-28T17:16:01;11.2;29.7
78884;SHT31;68262;51.968;5.672;2023-02-28T17:18:31;11.1;28.9
78884;SHT31;68262;51.968;5.672;2023-02-28T17:21:02;11.1;29.9
78884;SHT31;68262;51.968;5.672;2023-02-28T17:23:31;11.0;30.5
78884;SHT31;68262;51.968;5.672;2023-02-28T17:26:00;10.9;30.5
78884;SHT31;68262;51.968;5.672;2023-02-28T17:28:32;10.8;31.0
78884;SHT31;68262;51.968;5.672;2023-02-28T17:31:02;10.7;30.4
78884;SHT31;68262;51.968;5.672;2023-02-28T17:33:31;10.6;31.4
78884;SHT31;68262;51.968;5.672;2023-02-28T17:36:01;10.5;30.9
78884;SHT31;68262;51.968;5.672;2023-02-28T17:38:30;10.5;31.3
78884;SHT31;68262;51.968;5.672;2023-02-28T17:41:02;10.4;31.8
78884;SHT31;68262;51.968;5.672;2023-02-28T17:43:31;10.3;32.0
78884;SHT31;68262;51.968;5.672;2023-02-28T17:46:01;10.2;32.2
78884;SHT31;68262;51.968;5.672;2023-02-28T17:48:32;10.1;32.0
78884;SHT31;68262;51.968;5.672;2023-02-28T17:51:03;10.0;31.9
78884;SHT31;68262;51.968;5.672;2023-02-28T17:53:32;9.9;32.2
78884;SHT31;68262;51.968;5.672;2023-02-28T17:56:02;9.8;32.9
78884;SHT31;68262;51.968;5.672;2023-02-28T17:58:31;9.7;34.2
78884;SHT31;68262;51.968;5.672;2023-02-28T18:01:01;9.6;33.1
78884;SHT31;68262;51.968;5.672;2023-02-28T18:03:30;9.5;33.3
78884;SHT31;68262;51.968;5.672;2023-02-28T18:06:02;9.4;34.6